メインページ
METAR-TAF:

METAR-TAF

空港 :

ドバイ, アラブ首長国連邦

ドバイ国際空港

緯度: 25-15-10N, 経度: 055-21-52E, 海抜: 8m

現時点の気象観測

当レポートは1時間1分前の11:00(UTC)に作成
北西の風 13kt、西/北西からの間で変化する
気温 32°C
湿度 52%
気圧 1007 hPa
視程10km以上
1,500メートル以下は雲なし、積乱雲なし

METAR: OMDB 231100Z 32013KT 300V360 CAVOK 32/21 Q1007 NOSIG

時間: 16:01 (12:01 UTC)

予報

当レポートは56分前の11:05(UTC)に作成
予報は23日の 12時(UTC)から 24日の 18時(UTC)まで有効
北/北西の風 12kt
視程10km以上
1,500メートル以下は雲なし、積乱雲なし
23日の 17時(UTC)から 23日の 19時(UTC)まで徐々に
南/南東の風 5kt
24日の 07時(UTC)から 24日の 09時(UTC)まで徐々に
北西の風 15kt
24日の 16時(UTC)から 24日の 18時(UTC)まで徐々に
東/南東の風 5kt

TAF: OMDB 231105Z 2312/2418 33012KT CAVOK BECMG 2317/2319 15005KT BECMG 2407/2409 32015KT BECMG 2416/2418 11005KT

4,000以上の空港の気象観測と天気予報(METAR報とTAF報)

利用可能な観測所は地図上に黄色い丸と赤い丸で示す。

丸の上にカーソルを重ねると観測所名を参照できる。

次にクリックすると気象観測と天気予報を参照できる。

マップの切り替え:黒色「×」印の緑ボタンをクリックして拡大、「-」印の緑ボタンをクリックして縮小、緑色の三角印をクリックして隣りの地図に切り替え


METAR-TAF: